sensor_id;sensor_type;location;lat;lon;timestamp;P1;durP1;ratioP1;P2;durP2;ratioP2
56517;SDS011;42419;48.760;2.322;2023-06-22T00:01:50;3.07;;;2.77;;
56517;SDS011;42419;48.760;2.322;2023-06-22T00:04:15;3.30;;;2.47;;
56517;SDS011;42419;48.760;2.322;2023-06-22T00:06:40;2.97;;;2.77;;
56517;SDS011;42419;48.760;2.322;2023-06-22T00:09:06;3.37;;;2.90;;
56517;SDS011;42419;48.760;2.322;2023-06-22T00:11:32;3.10;;;2.77;;
56517;SDS011;42419;48.760;2.322;2023-06-22T00:13:58;2.60;;;2.40;;
56517;SDS011;42419;48.760;2.322;2023-06-22T00:16:24;2.93;;;2.63;;
56517;SDS011;42419;48.760;2.322;2023-06-22T00:18:49;3.13;;;2.70;;
56517;SDS011;42419;48.760;2.322;2023-06-22T00:21:14;2.63;;;2.43;;
56517;SDS011;42419;48.760;2.322;2023-06-22T00:23:40;2.70;;;2.47;;
56517;SDS011;42419;48.760;2.322;2023-06-22T00:26:06;3.20;;;2.90;;
56517;SDS011;42419;48.760;2.322;2023-06-22T00:28:31;3.43;;;2.83;;
56517;SDS011;42419;48.760;2.322;2023-06-22T00:30:57;2.90;;;2.70;;
56517;SDS011;42419;48.760;2.322;2023-06-22T00:33:22;3.57;;;2.63;;
56517;SDS011;42419;48.760;2.322;2023-06-22T00:35:48;4.07;;;2.83;;
56517;SDS011;42419;48.760;2.322;2023-06-22T00:38:13;2.83;;;2.63;;
56517;SDS011;42419;48.760;2.322;2023-06-22T00:40:38;2.50;;;2.30;;
56517;SDS011;42419;48.760;2.322;2023-06-22T00:43:04;3.03;;;2.60;;
56517;SDS011;42419;48.760;2.322;2023-06-22T00:45:30;3.10;;;2.90;;
56517;SDS011;42419;48.760;2.322;2023-06-22T00:47:56;3.80;;;2.63;;
56517;SDS011;42419;48.760;2.322;2023-06-22T00:50:23;2.97;;;2.77;;
56517;SDS011;42419;48.760;2.322;2023-06-22T00:52:51;2.77;;;2.40;;
56517;SDS011;42419;48.760;2.322;2023-06-22T00:55:21;3.37;;;2.30;;
56517;SDS011;42419;48.760;2.322;2023-06-22T00:57:47;3.37;;;2.80;;
56517;SDS011;42419;48.760;2.322;2023-06-22T01:00:13;3.20;;;2.90;;
56517;SDS011;42419;48.760;2.322;2023-06-22T01:02:42;2.93;;;2.67;;
56517;SDS011;42419;48.760;2.322;2023-06-22T01:05:10;2.83;;;2.63;;
56517;SDS011;42419;48.760;2.322;2023-06-22T01:07:42;3.00;;;2.70;;
56517;SDS011;42419;48.760;2.322;2023-06-22T01:10:37;2.80;;;2.60;;
56517;SDS011;42419;48.760;2.322;2023-06-22T01:18:44;3.40;;;2.93;;
56517;SDS011;42419;48.760;2.322;2023-06-22T01:21:12;3.07;;;2.77;;
56517;SDS011;42419;48.760;2.322;2023-06-22T01:23:47;4.73;;;2.80;;
56517;SDS011;42419;48.760;2.322;2023-06-22T01:28:51;3.20;;;2.73;;
56517;SDS011;42419;48.760;2.322;2023-06-22T01:31:20;3.43;;;2.83;;
56517;SDS011;42419;48.760;2.322;2023-06-22T01:33:59;2.77;;;2.53;;
56517;SDS011;42419;48.760;2.322;2023-06-22T01:36:27;3.13;;;2.67;;
56517;SDS011;42419;48.760;2.322;2023-06-22T01:38:54;2.83;;;2.50;;
56517;SDS011;42419;48.760;2.322;2023-06-22T01:41:24;2.87;;;2.47;;
56517;SDS011;42419;48.760;2.322;2023-06-22T01:43:50;3.20;;;2.70;;
56517;SDS011;42419;48.760;2.322;2023-06-22T01:46:17;2.97;;;2.73;;
56517;SDS011;42419;48.760;2.322;2023-06-22T01:48:44;3.23;;;2.93;;
56517;SDS011;42419;48.760;2.322;2023-06-22T01:51:11;4.27;;;2.70;;
56517;SDS011;42419;48.760;2.322;2023-06-22T01:53:36;3.43;;;2.70;;
56517;SDS011;42419;48.760;2.322;2023-06-22T01:56:02;3.20;;;2.80;;
56517;SDS011;42419;48.760;2.322;2023-06-22T01:58:28;3.37;;;2.80;;
56517;SDS011;42419;48.760;2.322;2023-06-22T02:00:56;3.00;;;2.70;;
56517;SDS011;42419;48.760;2.322;2023-06-22T02:03:31;3.70;;;2.90;;
56517;SDS011;42419;48.760;2.322;2023-06-22T02:06:23;3.07;;;2.87;;
56517;SDS011;42419;48.760;2.322;2023-06-22T02:08:56;3.37;;;3.07;;
56517;SDS011;42419;48.760;2.322;2023-06-22T02:11:26;3.03;;;2.50;;
56517;SDS011;42419;48.760;2.322;2023-06-22T02:13:53;3.20;;;3.00;;
56517;SDS011;42419;48.760;2.322;2023-06-22T02:16:20;3.43;;;3.13;;
56517;SDS011;42419;48.760;2.322;2023-06-22T02:18:46;6.20;;;3.10;;
56517;SDS011;42419;48.760;2.322;2023-06-22T02:21:12;2.97;;;2.70;;
56517;SDS011;42419;48.760;2.322;2023-06-22T02:23:38;3.77;;;3.30;;
56517;SDS011;42419;48.760;2.322;2023-06-22T02:26:03;2.83;;;2.63;;
56517;SDS011;42419;48.760;2.322;2023-06-22T02:28:29;3.10;;;2.70;;
56517;SDS011;42419;48.760;2.322;2023-06-22T02:30:54;2.73;;;2.53;;
56517;SDS011;42419;48.760;2.322;2023-06-22T02:33:19;3.03;;;2.73;;
56517;SDS011;42419;48.760;2.322;2023-06-22T02:35:45;2.70;;;2.43;;
56517;SDS011;42419;48.760;2.322;2023-06-22T02:38:13;3.30;;;3.00;;
56517;SDS011;42419;48.760;2.322;2023-06-22T02:40:39;2.83;;;2.63;;
56517;SDS011;42419;48.760;2.322;2023-06-22T02:43:05;3.23;;;2.93;;
56517;SDS011;42419;48.760;2.322;2023-06-22T02:45:30;3.23;;;2.70;;
56517;SDS011;42419;48.760;2.322;2023-06-22T02:47:55;3.43;;;2.80;;
56517;SDS011;42419;48.760;2.322;2023-06-22T02:50:21;3.23;;;2.77;;
56517;SDS011;42419;48.760;2.322;2023-06-22T02:52:46;3.00;;;2.70;;
56517;SDS011;42419;48.760;2.322;2023-06-22T02:55:11;2.93;;;2.73;;
56517;SDS011;42419;48.760;2.322;2023-06-22T02:57:37;2.67;;;2.47;;
56517;SDS011;42419;48.760;2.322;2023-06-22T03:00:03;2.83;;;2.63;;
56517;SDS011;42419;48.760;2.322;2023-06-22T03:02:41;2.70;;;2.50;;
56517;SDS011;42419;48.760;2.322;2023-06-22T03:05:07;3.50;;;3.20;;
56517;SDS011;42419;48.760;2.322;2023-06-22T03:07:34;2.87;;;2.67;;
56517;SDS011;42419;48.760;2.322;2023-06-22T03:10:00;3.33;;;3.03;;
56517;SDS011;42419;48.760;2.322;2023-06-22T03:12:25;2.87;;;2.67;;
56517;SDS011;42419;48.760;2.322;2023-06-22T03:14:50;3.30;;;3.00;;
56517;SDS011;42419;48.760;2.322;2023-06-22T03:17:16;3.40;;;2.70;;
56517;SDS011;42419;48.760;2.322;2023-06-22T03:19:41;3.10;;;2.43;;
56517;SDS011;42419;48.760;2.322;2023-06-22T03:22:06;2.90;;;2.70;;
56517;SDS011;42419;48.760;2.322;2023-06-22T03:24:32;3.43;;;3.13;;
56517;SDS011;42419;48.760;2.322;2023-06-22T03:26:59;3.97;;;3.57;;
56517;SDS011;42419;48.760;2.322;2023-06-22T03:29:25;2.73;;;2.53;;
56517;SDS011;42419;48.760;2.322;2023-06-22T03:31:50;3.03;;;2.83;;
56517;SDS011;42419;48.760;2.322;2023-06-22T03:34:16;3.67;;;3.20;;
56517;SDS011;42419;48.760;2.322;2023-06-22T03:36:41;2.80;;;2.50;;
56517;SDS011;42419;48.760;2.322;2023-06-22T03:39:07;3.23;;;2.90;;
56517;SDS011;42419;48.760;2.322;2023-06-22T03:41:33;3.23;;;2.93;;
56517;SDS011;42419;48.760;2.322;2023-06-22T03:43:58;2.87;;;2.67;;
56517;SDS011;42419;48.760;2.322;2023-06-22T03:46:23;3.23;;;2.93;;
56517;SDS011;42419;48.760;2.322;2023-06-22T03:48:49;3.40;;;2.93;;
56517;SDS011;42419;48.760;2.322;2023-06-22T03:51:14;3.90;;;3.50;;
56517;SDS011;42419;48.760;2.322;2023-06-22T03:53:39;4.67;;;3.17;;
56517;SDS011;42419;48.760;2.322;2023-06-22T03:56:05;3.57;;;3.27;;
56517;SDS011;42419;48.760;2.322;2023-06-22T03:58:30;3.30;;;3.00;;
56517;SDS011;42419;48.760;2.322;2023-06-22T04:00:57;3.50;;;3.20;;
56517;SDS011;42419;48.760;2.322;2023-06-22T04:03:24;3.17;;;2.87;;
56517;SDS011;42419;48.760;2.322;2023-06-22T04:05:50;3.37;;;3.07;;
56517;SDS011;42419;48.760;2.322;2023-06-22T04:08:15;3.40;;;3.10;;
56517;SDS011;42419;48.760;2.322;2023-06-22T04:10:41;3.27;;;2.97;;
56517;SDS011;42419;48.760;2.322;2023-06-22T04:13:07;3.37;;;3.17;;
56517;SDS011;42419;48.760;2.322;2023-06-22T04:15:32;3.83;;;3.07;;
56517;SDS011;42419;48.760;2.322;2023-06-22T04:17:58;3.67;;;3.30;;
56517;SDS011;42419;48.760;2.322;2023-06-22T04:20:23;4.00;;;3.60;;
56517;SDS011;42419;48.760;2.322;2023-06-22T04:22:54;3.90;;;3.40;;
56517;SDS011;42419;48.760;2.322;2023-06-22T04:25:20;6.20;;;3.37;;
56517;SDS011;42419;48.760;2.322;2023-06-22T04:27:46;6.43;;;3.70;;
56517;SDS011;42419;48.760;2.322;2023-06-22T04:30:11;3.93;;;3.37;;
56517;SDS011;42419;48.760;2.322;2023-06-22T04:32:41;3.97;;;3.60;;
56517;SDS011;42419;48.760;2.322;2023-06-22T04:35:06;3.40;;;3.10;;
56517;SDS011;42419;48.760;2.322;2023-06-22T04:37:32;3.63;;;3.33;;
56517;SDS011;42419;48.760;2.322;2023-06-22T04:39:58;4.53;;;3.60;;
56517;SDS011;42419;48.760;2.322;2023-06-22T04:42:26;7.43;;;4.03;;
56517;SDS011;42419;48.760;2.322;2023-06-22T04:44:52;3.77;;;3.37;;
56517;SDS011;42419;48.760;2.322;2023-06-22T04:47:18;4.70;;;3.73;;
56517;SDS011;42419;48.760;2.322;2023-06-22T04:49:43;3.73;;;3.43;;
56517;SDS011;42419;48.760;2.322;2023-06-22T04:52:10;4.60;;;3.40;;
56517;SDS011;42419;48.760;2.322;2023-06-22T04:54:42;4.53;;;3.40;;
56517;SDS011;42419;48.760;2.322;2023-06-22T04:57:15;3.40;;;3.13;;
56517;SDS011;42419;48.760;2.322;2023-06-22T04:59:42;4.30;;;3.67;;
56517;SDS011;42419;48.760;2.322;2023-06-22T05:02:08;3.57;;;3.20;;
56517;SDS011;42419;48.760;2.322;2023-06-22T05:04:34;3.60;;;3.30;;
56517;SDS011;42419;48.760;2.322;2023-06-22T05:07:06;4.20;;;3.80;;
56517;SDS011;42419;48.760;2.322;2023-06-22T05:09:31;6.30;;;4.17;;
56517;SDS011;42419;48.760;2.322;2023-06-22T05:11:58;4.53;;;4.10;;
56517;SDS011;42419;48.760;2.322;2023-06-22T05:14:27;4.23;;;3.83;;
56517;SDS011;42419;48.760;2.322;2023-06-22T05:16:52;8.03;;;4.60;;
56517;SDS011;42419;48.760;2.322;2023-06-22T05:19:17;4.60;;;3.70;;
56517;SDS011;42419;48.760;2.322;2023-06-22T05:21:43;5.43;;;4.80;;
56517;SDS011;42419;48.760;2.322;2023-06-22T05:24:08;5.50;;;3.83;;
56517;SDS011;42419;48.760;2.322;2023-06-22T05:26:34;4.60;;;4.20;;
56517;SDS011;42419;48.760;2.322;2023-06-22T05:29:00;5.10;;;4.20;;
56517;SDS011;42419;48.760;2.322;2023-06-22T05:31:27;4.60;;;4.20;;
56517;SDS011;42419;48.760;2.322;2023-06-22T05:33:53;5.37;;;4.40;;
56517;SDS011;42419;48.760;2.322;2023-06-22T05:36:19;4.73;;;3.97;;
56517;SDS011;42419;48.760;2.322;2023-06-22T05:38:46;7.80;;;4.70;;
56517;SDS011;42419;48.760;2.322;2023-06-22T05:41:11;5.87;;;4.30;;
56517;SDS011;42419;48.760;2.322;2023-06-22T05:43:37;4.60;;;4.00;;
56517;SDS011;42419;48.760;2.322;2023-06-22T05:46:03;4.93;;;4.43;;
56517;SDS011;42419;48.760;2.322;2023-06-22T05:48:29;4.17;;;3.87;;
56517;SDS011;42419;48.760;2.322;2023-06-22T05:50:54;6.67;;;4.30;;
56517;SDS011;42419;48.760;2.322;2023-06-22T05:53:20;5.93;;;4.90;;
56517;SDS011;42419;48.760;2.322;2023-06-22T05:55:45;4.73;;;4.33;;
56517;SDS011;42419;48.760;2.322;2023-06-22T05:58:11;5.30;;;4.80;;
56517;SDS011;42419;48.760;2.322;2023-06-22T06:00:38;5.07;;;4.57;;
56517;SDS011;42419;48.760;2.322;2023-06-22T06:03:03;5.00;;;4.03;;
56517;SDS011;42419;48.760;2.322;2023-06-22T06:05:29;3.97;;;3.60;;
56517;SDS011;42419;48.760;2.322;2023-06-22T06:07:55;4.93;;;4.10;;
56517;SDS011;42419;48.760;2.322;2023-06-22T06:10:20;6.37;;;4.30;;
56517;SDS011;42419;48.760;2.322;2023-06-22T06:12:46;5.27;;;4.83;;
56517;SDS011;42419;48.760;2.322;2023-06-22T06:15:11;6.43;;;4.80;;
56517;SDS011;42419;48.760;2.322;2023-06-22T06:17:44;5.13;;;4.30;;
56517;SDS011;42419;48.760;2.322;2023-06-22T06:20:11;5.00;;;4.47;;
56517;SDS011;42419;48.760;2.322;2023-06-22T06:22:37;6.17;;;4.70;;
56517;SDS011;42419;48.760;2.322;2023-06-22T06:25:02;4.53;;;4.13;;
56517;SDS011;42419;48.760;2.322;2023-06-22T06:27:27;5.00;;;4.47;;
56517;SDS011;42419;48.760;2.322;2023-06-22T06:29:54;6.17;;;5.40;;
56517;SDS011;42419;48.760;2.322;2023-06-22T06:32:19;5.20;;;4.70;;
56517;SDS011;42419;48.760;2.322;2023-06-22T06:34:45;5.73;;;4.77;;
56517;SDS011;42419;48.760;2.322;2023-06-22T06:37:10;5.57;;;4.83;;
56517;SDS011;42419;48.760;2.322;2023-06-22T06:39:35;5.50;;;4.63;;
56517;SDS011;42419;48.760;2.322;2023-06-22T06:42:01;7.10;;;4.87;;
56517;SDS011;42419;48.760;2.322;2023-06-22T06:44:26;5.07;;;4.57;;
56517;SDS011;42419;48.760;2.322;2023-06-22T06:46:52;5.67;;;5.10;;
56517;SDS011;42419;48.760;2.322;2023-06-22T06:49:19;5.33;;;4.83;;
56517;SDS011;42419;48.760;2.322;2023-06-22T06:51:44;6.20;;;4.70;;
56517;SDS011;42419;48.760;2.322;2023-06-22T06:54:09;5.57;;;5.07;;
56517;SDS011;42419;48.760;2.322;2023-06-22T06:56:35;6.07;;;4.80;;
56517;SDS011;42419;48.760;2.322;2023-06-22T06:59:00;8.00;;;5.47;;
56517;SDS011;42419;48.760;2.322;2023-06-22T07:01:26;6.40;;;4.70;;
56517;SDS011;42419;48.760;2.322;2023-06-22T07:03:51;5.70;;;5.00;;
56517;SDS011;42419;48.760;2.322;2023-06-22T07:06:16;5.90;;;5.07;;
56517;SDS011;42419;48.760;2.322;2023-06-22T07:08:42;8.30;;;6.40;;
56517;SDS011;42419;48.760;2.322;2023-06-22T07:11:08;5.73;;;5.20;;
56517;SDS011;42419;48.760;2.322;2023-06-22T07:13:33;6.53;;;5.37;;
56517;SDS011;42419;48.760;2.322;2023-06-22T07:15:58;6.60;;;5.40;;
56517;SDS011;42419;48.760;2.322;2023-06-22T07:18:24;6.00;;;5.07;;
56517;SDS011;42419;48.760;2.322;2023-06-22T07:20:49;7.13;;;5.83;;
56517;SDS011;42419;48.760;2.322;2023-06-22T07:23:14;5.30;;;4.80;;
56517;SDS011;42419;48.760;2.322;2023-06-22T07:25:40;5.73;;;4.70;;
56517;SDS011;42419;48.760;2.322;2023-06-22T07:28:06;8.43;;;5.70;;
56517;SDS011;42419;48.760;2.322;2023-06-22T07:30:32;9.60;;;5.90;;
56517;SDS011;42419;48.760;2.322;2023-06-22T07:32:59;6.83;;;6.20;;
56517;SDS011;42419;48.760;2.322;2023-06-22T07:35:29;6.47;;;5.60;;
56517;SDS011;42419;48.760;2.322;2023-06-22T07:37:55;9.10;;;6.00;;
56517;SDS011;42419;48.760;2.322;2023-06-22T07:40:21;6.90;;;5.97;;
56517;SDS011;42419;48.760;2.322;2023-06-22T07:42:46;7.70;;;6.60;;
56517;SDS011;42419;48.760;2.322;2023-06-22T07:45:16;8.30;;;6.80;;
56517;SDS011;42419;48.760;2.322;2023-06-22T07:47:42;7.50;;;5.90;;
56517;SDS011;42419;48.760;2.322;2023-06-22T07:50:07;7.57;;;6.87;;
56517;SDS011;42419;48.760;2.322;2023-06-22T07:52:33;7.43;;;5.03;;
56517;SDS011;42419;48.760;2.322;2023-06-22T07:54:58;7.03;;;6.07;;
56517;SDS011;42419;48.760;2.322;2023-06-22T07:57:23;8.13;;;6.40;;
56517;SDS011;42419;48.760;2.322;2023-06-22T07:59:57;7.83;;;5.97;;
56517;SDS011;42419;48.760;2.322;2023-06-22T08:02:22;6.90;;;6.10;;
56517;SDS011;42419;48.760;2.322;2023-06-22T08:04:47;7.97;;;5.40;;
56517;SDS011;42419;48.760;2.322;2023-06-22T08:07:13;6.30;;;5.57;;
56517;SDS011;42419;48.760;2.322;2023-06-22T08:09:38;8.67;;;6.67;;
56517;SDS011;42419;48.760;2.322;2023-06-22T08:12:04;6.63;;;5.40;;
56517;SDS011;42419;48.760;2.322;2023-06-22T08:14:29;6.10;;;5.50;;
56517;SDS011;42419;48.760;2.322;2023-06-22T08:16:55;6.20;;;5.60;;
56517;SDS011;42419;48.760;2.322;2023-06-22T08:19:20;6.33;;;5.73;;
56517;SDS011;42419;48.760;2.322;2023-06-22T08:21:46;7.90;;;5.90;;
56517;SDS011;42419;48.760;2.322;2023-06-22T08:24:11;6.43;;;5.83;;
56517;SDS011;42419;48.760;2.322;2023-06-22T08:26:37;6.70;;;6.10;;
56517;SDS011;42419;48.760;2.322;2023-06-22T08:29:03;7.60;;;6.80;;
56517;SDS011;42419;48.760;2.322;2023-06-22T08:31:29;6.73;;;6.03;;
56517;SDS011;42419;48.760;2.322;2023-06-22T08:33:55;6.33;;;5.63;;
56517;SDS011;42419;48.760;2.322;2023-06-22T08:36:21;7.50;;;6.80;;
56517;SDS011;42419;48.760;2.322;2023-06-22T08:38:46;9.90;;;6.40;;
56517;SDS011;42419;48.760;2.322;2023-06-22T08:41:15;7.43;;;6.30;;
56517;SDS011;42419;48.760;2.322;2023-06-22T08:43:40;7.70;;;6.10;;
56517;SDS011;42419;48.760;2.322;2023-06-22T08:46:07;7.03;;;6.27;;
56517;SDS011;42419;48.760;2.322;2023-06-22T08:48:32;8.50;;;6.60;;
56517;SDS011;42419;48.760;2.322;2023-06-22T08:50:57;8.13;;;5.83;;
56517;SDS011;42419;48.760;2.322;2023-06-22T08:53:22;7.60;;;5.90;;
56517;SDS011;42419;48.760;2.322;2023-06-22T08:55:48;6.63;;;5.87;;
56517;SDS011;42419;48.760;2.322;2023-06-22T08:58:15;9.40;;;6.10;;
56517;SDS011;42419;48.760;2.322;2023-06-22T09:00:41;7.33;;;6.47;;
56517;SDS011;42419;48.760;2.322;2023-06-22T09:03:06;9.20;;;6.33;;
56517;SDS011;42419;48.760;2.322;2023-06-22T09:05:31;6.60;;;6.00;;
56517;SDS011;42419;48.760;2.322;2023-06-22T09:07:57;6.03;;;5.50;;
56517;SDS011;42419;48.760;2.322;2023-06-22T09:10:23;6.63;;;6.03;;
56517;SDS011;42419;48.760;2.322;2023-06-22T09:12:49;6.27;;;5.67;;
56517;SDS011;42419;48.760;2.322;2023-06-22T09:15:14;6.23;;;5.20;;
56517;SDS011;42419;48.760;2.322;2023-06-22T09:17:40;7.57;;;6.27;;
56517;SDS011;42419;48.760;2.322;2023-06-22T09:20:11;6.40;;;5.80;;
56517;SDS011;42419;48.760;2.322;2023-06-22T09:22:36;7.50;;;6.80;;
56517;SDS011;42419;48.760;2.322;2023-06-22T09:25:01;7.13;;;6.43;;
56517;SDS011;42419;48.760;2.322;2023-06-22T09:27:28;8.47;;;6.73;;
56517;SDS011;42419;48.760;2.322;2023-06-22T09:29:53;5.80;;;5.30;;
56517;SDS011;42419;48.760;2.322;2023-06-22T09:32:18;6.63;;;6.03;;
56517;SDS011;42419;48.760;2.322;2023-06-22T09:34:44;6.23;;;5.63;;
56517;SDS011;42419;48.760;2.322;2023-06-22T09:37:09;7.17;;;5.80;;
56517;SDS011;42419;48.760;2.322;2023-06-22T09:39:34;6.70;;;5.73;;
56517;SDS011;42419;48.760;2.322;2023-06-22T09:42:01;6.23;;;5.57;;
56517;SDS011;42419;48.760;2.322;2023-06-22T09:44:26;6.40;;;5.80;;
56517;SDS011;42419;48.760;2.322;2023-06-22T09:46:51;5.50;;;5.00;;
56517;SDS011;42419;48.760;2.322;2023-06-22T09:49:17;7.53;;;6.10;;
56517;SDS011;42419;48.760;2.322;2023-06-22T09:51:43;7.37;;;6.63;;
56517;SDS011;42419;48.760;2.322;2023-06-22T09:54:08;6.47;;;5.87;;
56517;SDS011;42419;48.760;2.322;2023-06-22T09:56:33;6.17;;;5.57;;
56517;SDS011;42419;48.760;2.322;2023-06-22T09:58:59;10.33;;;6.40;;
56517;SDS011;42419;48.760;2.322;2023-06-22T10:01:24;6.43;;;5.07;;
56517;SDS011;42419;48.760;2.322;2023-06-22T10:03:49;6.97;;;5.90;;
56517;SDS011;42419;48.760;2.322;2023-06-22T10:06:19;8.00;;;6.03;;
56517;SDS011;42419;48.760;2.322;2023-06-22T10:08:44;6.90;;;6.00;;
56517;SDS011;42419;48.760;2.322;2023-06-22T10:11:10;7.60;;;6.20;;
56517;SDS011;42419;48.760;2.322;2023-06-22T10:13:36;7.93;;;7.13;;
56517;SDS011;42419;48.760;2.322;2023-06-22T10:16:01;9.63;;;6.63;;
56517;SDS011;42419;48.760;2.322;2023-06-22T10:18:26;6.60;;;6.00;;
56517;SDS011;42419;48.760;2.322;2023-06-22T10:20:52;7.67;;;6.43;;
56517;SDS011;42419;48.760;2.322;2023-06-22T10:23:17;6.33;;;5.73;;
56517;SDS011;42419;48.760;2.322;2023-06-22T10:25:47;7.73;;;6.50;;
56517;SDS011;42419;48.760;2.322;2023-06-22T10:28:13;6.33;;;5.73;;
56517;SDS011;42419;48.760;2.322;2023-06-22T10:30:39;6.60;;;5.63;;
56517;SDS011;42419;48.760;2.322;2023-06-22T10:33:06;6.53;;;5.10;;
56517;SDS011;42419;48.760;2.322;2023-06-22T10:35:32;5.50;;;5.00;;
56517;SDS011;42419;48.760;2.322;2023-06-22T10:37:57;5.60;;;4.80;;
56517;SDS011;42419;48.760;2.322;2023-06-22T10:40:23;5.70;;;5.10;;
56517;SDS011;42419;48.760;2.322;2023-06-22T10:42:48;6.83;;;4.90;;
56517;SDS011;42419;48.760;2.322;2023-06-22T10:45:15;7.53;;;5.17;;
56517;SDS011;42419;48.760;2.322;2023-06-22T10:47:40;5.10;;;4.60;;
56517;SDS011;42419;48.760;2.322;2023-06-22T10:50:07;5.33;;;4.80;;
56517;SDS011;42419;48.760;2.322;2023-06-22T10:52:33;4.60;;;4.17;;
56517;SDS011;42419;48.760;2.322;2023-06-22T10:54:58;5.10;;;4.60;;
56517;SDS011;42419;48.760;2.322;2023-06-22T10:57:23;5.43;;;4.90;;
56517;SDS011;42419;48.760;2.322;2023-06-22T10:59:49;5.23;;;4.10;;
56517;SDS011;42419;48.760;2.322;2023-06-22T11:02:14;5.33;;;4.23;;
56517;SDS011;42419;48.760;2.322;2023-06-22T11:04:39;5.53;;;5.03;;
56517;SDS011;42419;48.760;2.322;2023-06-22T11:07:05;6.43;;;5.37;;
56517;SDS011;42419;48.760;2.322;2023-06-22T11:09:30;5.27;;;4.80;;
56517;SDS011;42419;48.760;2.322;2023-06-22T11:11:56;5.93;;;5.30;;
56517;SDS011;42419;48.760;2.322;2023-06-22T11:14:23;6.40;;;4.30;;
56517;SDS011;42419;48.760;2.322;2023-06-22T11:16:49;4.93;;;4.53;;
56517;SDS011;42419;48.760;2.322;2023-06-22T11:19:14;5.50;;;5.00;;
56517;SDS011;42419;48.760;2.322;2023-06-22T11:21:40;4.80;;;4.40;;
56517;SDS011;42419;48.760;2.322;2023-06-22T11:24:05;4.97;;;4.57;;
56517;SDS011;42419;48.760;2.322;2023-06-22T11:26:31;5.20;;;4.70;;
56517;SDS011;42419;48.760;2.322;2023-06-22T11:28:59;4.70;;;4.30;;
56517;SDS011;42419;48.760;2.322;2023-06-22T11:31:25;4.53;;;4.17;;
56517;SDS011;42419;48.760;2.322;2023-06-22T11:33:50;4.53;;;4.10;;
56517;SDS011;42419;48.760;2.322;2023-06-22T11:36:16;4.50;;;4.10;;
56517;SDS011;42419;48.760;2.322;2023-06-22T11:38:42;4.37;;;3.97;;
56517;SDS011;42419;48.760;2.322;2023-06-22T11:41:08;5.50;;;4.90;;
56517;SDS011;42419;48.760;2.322;2023-06-22T11:43:34;4.13;;;3.83;;
56517;SDS011;42419;48.760;2.322;2023-06-22T11:46:01;4.37;;;3.97;;
56517;SDS011;42419;48.760;2.322;2023-06-22T11:48:28;4.30;;;3.90;;
56517;SDS011;42419;48.760;2.322;2023-06-22T11:50:53;5.10;;;4.70;;
56517;SDS011;42419;48.760;2.322;2023-06-22T11:53:20;4.80;;;4.20;;
56517;SDS011;42419;48.760;2.322;2023-06-22T11:55:46;5.10;;;4.60;;
56517;SDS011;42419;48.760;2.322;2023-06-22T11:58:12;4.37;;;3.90;;
56517;SDS011;42419;48.760;2.322;2023-06-22T12:00:37;4.87;;;4.23;;
56517;SDS011;42419;48.760;2.322;2023-06-22T12:03:02;4.13;;;3.60;;
56517;SDS011;42419;48.760;2.322;2023-06-22T12:05:28;4.23;;;3.80;;
56517;SDS011;42419;48.760;2.322;2023-06-22T12:07:53;4.40;;;4.00;;
56517;SDS011;42419;48.760;2.322;2023-06-22T12:10:19;5.33;;;4.27;;
56517;SDS011;42419;48.760;2.322;2023-06-22T12:12:45;4.73;;;4.27;;
56517;SDS011;42419;48.760;2.322;2023-06-22T12:15:13;4.57;;;4.03;;
56517;SDS011;42419;48.760;2.322;2023-06-22T12:17:38;4.43;;;4.07;;
56517;SDS011;42419;48.760;2.322;2023-06-22T12:20:04;6.07;;;3.73;;
56517;SDS011;42419;48.760;2.322;2023-06-22T12:22:33;4.60;;;3.90;;
56517;SDS011;42419;48.760;2.322;2023-06-22T12:24:59;4.63;;;4.10;;
56517;SDS011;42419;48.760;2.322;2023-06-22T12:27:25;4.07;;;3.67;;
56517;SDS011;42419;48.760;2.322;2023-06-22T12:29:51;7.17;;;4.00;;
56517;SDS011;42419;48.760;2.322;2023-06-22T12:32:16;5.40;;;3.47;;
56517;SDS011;42419;48.760;2.322;2023-06-22T12:34:42;5.20;;;4.23;;
56517;SDS011;42419;48.760;2.322;2023-06-22T12:37:07;6.13;;;3.43;;
56517;SDS011;42419;48.760;2.322;2023-06-22T12:39:33;3.73;;;3.43;;
56517;SDS011;42419;48.760;2.322;2023-06-22T12:41:58;4.20;;;3.80;;
56517;SDS011;42419;48.760;2.322;2023-06-22T12:44:24;5.53;;;4.80;;
56517;SDS011;42419;48.760;2.322;2023-06-22T12:46:49;4.17;;;3.87;;
56517;SDS011;42419;48.760;2.322;2023-06-22T12:49:14;4.93;;;4.50;;
56517;SDS011;42419;48.760;2.322;2023-06-22T12:51:40;4.73;;;3.70;;
56517;SDS011;42419;48.760;2.322;2023-06-22T12:54:07;4.00;;;3.70;;
56517;SDS011;42419;48.760;2.322;2023-06-22T12:56:33;4.07;;;3.67;;
56517;SDS011;42419;48.760;2.322;2023-06-22T12:58:58;6.23;;;4.20;;
56517;SDS011;42419;48.760;2.322;2023-06-22T13:01:26;4.63;;;4.23;;
56517;SDS011;42419;48.760;2.322;2023-06-22T13:03:55;4.17;;;3.80;;
56517;SDS011;42419;48.760;2.322;2023-06-22T13:06:21;4.10;;;3.70;;
56517;SDS011;42419;48.760;2.322;2023-06-22T13:08:46;4.83;;;4.33;;
56517;SDS011;42419;48.760;2.322;2023-06-22T13:11:11;5.57;;;4.17;;
56517;SDS011;42419;48.760;2.322;2023-06-22T13:13:37;4.10;;;3.80;;
56517;SDS011;42419;48.760;2.322;2023-06-22T13:16:03;4.27;;;3.97;;
56517;SDS011;42419;48.760;2.322;2023-06-22T13:18:28;4.20;;;3.80;;
56517;SDS011;42419;48.760;2.322;2023-06-22T13:20:53;4.27;;;3.90;;
56517;SDS011;42419;48.760;2.322;2023-06-22T13:23:20;4.20;;;3.80;;
56517;SDS011;42419;48.760;2.322;2023-06-22T13:25:46;4.23;;;3.77;;
56517;SDS011;42419;48.760;2.322;2023-06-22T13:28:11;4.23;;;3.93;;
56517;SDS011;42419;48.760;2.322;2023-06-22T13:30:38;4.97;;;4.47;;
56517;SDS011;42419;48.760;2.322;2023-06-22T13:33:04;4.77;;;4.07;;
56517;SDS011;42419;48.760;2.322;2023-06-22T13:35:29;4.33;;;3.77;;
56517;SDS011;42419;48.760;2.322;2023-06-22T13:37:55;7.33;;;4.43;;
56517;SDS011;42419;48.760;2.322;2023-06-22T13:40:20;4.13;;;3.83;;
56517;SDS011;42419;48.760;2.322;2023-06-22T13:42:45;3.90;;;3.60;;
56517;SDS011;42419;48.760;2.322;2023-06-22T13:45:11;4.83;;;3.53;;
56517;SDS011;42419;48.760;2.322;2023-06-22T13:47:36;5.50;;;4.10;;
56517;SDS011;42419;48.760;2.322;2023-06-22T13:50:01;4.60;;;4.20;;
56517;SDS011;42419;48.760;2.322;2023-06-22T13:52:27;4.43;;;3.97;;
56517;SDS011;42419;48.760;2.322;2023-06-22T13:54:52;4.90;;;4.47;;
56517;SDS011;42419;48.760;2.322;2023-06-22T13:57:17;5.60;;;3.90;;
56517;SDS011;42419;48.760;2.322;2023-06-22T13:59:43;4.47;;;4.07;;
56517;SDS011;42419;48.760;2.322;2023-06-22T14:02:08;4.80;;;3.90;;
56517;SDS011;42419;48.760;2.322;2023-06-22T14:04:33;4.80;;;4.40;;
56517;SDS011;42419;48.760;2.322;2023-06-22T14:06:59;5.57;;;4.80;;
56517;SDS011;42419;48.760;2.322;2023-06-22T14:09:24;6.70;;;5.50;;
56517;SDS011;42419;48.760;2.322;2023-06-22T14:11:50;4.70;;;4.17;;
56517;SDS011;42419;48.760;2.322;2023-06-22T14:14:15;5.50;;;5.00;;
56517;SDS011;42419;48.760;2.322;2023-06-22T14:16:40;4.33;;;3.93;;
56517;SDS011;42419;48.760;2.322;2023-06-22T14:19:06;4.07;;;3.70;;
56517;SDS011;42419;48.760;2.322;2023-06-22T14:21:31;4.40;;;4.07;;
56517;SDS011;42419;48.760;2.322;2023-06-22T14:23:56;5.13;;;4.23;;
56517;SDS011;42419;48.760;2.322;2023-06-22T14:26:22;5.07;;;4.57;;
56517;SDS011;42419;48.760;2.322;2023-06-22T14:28:47;5.10;;;4.60;;
56517;SDS011;42419;48.760;2.322;2023-06-22T14:31:15;4.70;;;4.10;;
56517;SDS011;42419;48.760;2.322;2023-06-22T14:33:43;5.23;;;4.73;;
56517;SDS011;42419;48.760;2.322;2023-06-22T14:36:11;5.97;;;4.57;;
56517;SDS011;42419;48.760;2.322;2023-06-22T14:38:36;5.60;;;5.10;;
56517;SDS011;42419;48.760;2.322;2023-06-22T14:41:01;5.13;;;4.63;;
56517;SDS011;42419;48.760;2.322;2023-06-22T14:43:27;6.13;;;5.53;;
56517;SDS011;42419;48.760;2.322;2023-06-22T14:45:52;6.03;;;5.53;;
56517;SDS011;42419;48.760;2.322;2023-06-22T14:48:17;5.70;;;5.20;;
56517;SDS011;42419;48.760;2.322;2023-06-22T14:50:43;7.00;;;4.93;;